sensor_id;sensor_type;location;lat;lon;timestamp;temperature;humidity
18337;DHT22;9294;51.106;7.028;2023-12-20T00:01:06;19.70;89.20
18337;DHT22;9294;51.106;7.028;2023-12-20T00:03:33;19.70;89.20
18337;DHT22;9294;51.106;7.028;2023-12-20T00:05:59;19.70;89.20
18337;DHT22;9294;51.106;7.028;2023-12-20T00:08:26;19.70;89.10
18337;DHT22;9294;51.106;7.028;2023-12-20T00:10:54;19.70;89.10
18337;DHT22;9294;51.106;7.028;2023-12-20T00:13:21;19.60;89.00
18337;DHT22;9294;51.106;7.028;2023-12-20T00:15:47;19.60;89.00
18337;DHT22;9294;51.106;7.028;2023-12-20T00:18:14;19.60;89.00
18337;DHT22;9294;51.106;7.028;2023-12-20T00:20:41;19.60;88.90
18337;DHT22;9294;51.106;7.028;2023-12-20T00:23:07;19.60;89.00
18337;DHT22;9294;51.106;7.028;2023-12-20T00:25:34;19.60;89.00
18337;DHT22;9294;51.106;7.028;2023-12-20T00:28:03;19.60;88.90
18337;DHT22;9294;51.106;7.028;2023-12-20T00:30:29;19.60;89.00
18337;DHT22;9294;51.106;7.028;2023-12-20T00:32:56;19.60;89.00
18337;DHT22;9294;51.106;7.028;2023-12-20T00:35:23;19.50;88.90
18337;DHT22;9294;51.106;7.028;2023-12-20T00:37:49;19.50;88.90
18337;DHT22;9294;51.106;7.028;2023-12-20T00:40:16;19.50;88.90
18337;DHT22;9294;51.106;7.028;2023-12-20T00:42:43;19.50;88.90
18337;DHT22;9294;51.106;7.028;2023-12-20T00:45:13;19.50;88.90
18337;DHT22;9294;51.106;7.028;2023-12-20T00:47:40;19.50;88.90
18337;DHT22;9294;51.106;7.028;2023-12-20T00:50:08;19.50;88.90
18337;DHT22;9294;51.106;7.028;2023-12-20T00:52:35;19.50;88.90
18337;DHT22;9294;51.106;7.028;2023-12-20T00:55:01;19.50;88.90
18337;DHT22;9294;51.106;7.028;2023-12-20T00:57:29;19.50;88.90
18337;DHT22;9294;51.106;7.028;2023-12-20T00:59:56;19.50;88.90
18337;DHT22;9294;51.106;7.028;2023-12-20T01:02:24;19.50;88.90
18337;DHT22;9294;51.106;7.028;2023-12-20T01:04:51;19.50;88.90
18337;DHT22;9294;51.106;7.028;2023-12-20T01:07:18;19.40;88.80
18337;DHT22;9294;51.106;7.028;2023-12-20T01:09:45;19.40;88.80
18337;DHT22;9294;51.106;7.028;2023-12-20T01:12:11;19.40;88.80
18337;DHT22;9294;51.106;7.028;2023-12-20T01:14:38;19.40;88.80
18337;DHT22;9294;51.106;7.028;2023-12-20T01:17:05;19.40;88.90
18337;DHT22;9294;51.106;7.028;2023-12-20T01:19:33;19.40;88.80
18337;DHT22;9294;51.106;7.028;2023-12-20T01:22:00;19.40;88.80
18337;DHT22;9294;51.106;7.028;2023-12-20T01:24:26;19.40;88.80
18337;DHT22;9294;51.106;7.028;2023-12-20T01:26:53;19.40;88.80
18337;DHT22;9294;51.106;7.028;2023-12-20T01:29:20;19.40;88.80
18337;DHT22;9294;51.106;7.028;2023-12-20T01:31:46;19.40;88.70
18337;DHT22;9294;51.106;7.028;2023-12-20T01:34:13;19.40;88.80
18337;DHT22;9294;51.106;7.028;2023-12-20T01:36:41;19.40;88.80
18337;DHT22;9294;51.106;7.028;2023-12-20T01:39:08;19.40;88.80
18337;DHT22;9294;51.106;7.028;2023-12-20T01:41:34;19.40;88.80
18337;DHT22;9294;51.106;7.028;2023-12-20T01:44:01;19.40;88.80
18337;DHT22;9294;51.106;7.028;2023-12-20T01:46:28;19.40;88.90
18337;DHT22;9294;51.106;7.028;2023-12-20T01:48:54;19.30;88.80
18337;DHT22;9294;51.106;7.028;2023-12-20T01:51:21;19.30;88.70
18337;DHT22;9294;51.106;7.028;2023-12-20T01:53:50;19.40;88.90
18337;DHT22;9294;51.106;7.028;2023-12-20T01:56:17;19.40;88.80
18337;DHT22;9294;51.106;7.028;2023-12-20T01:58:44;19.30;88.70
18337;DHT22;9294;51.106;7.028;2023-12-20T02:01:12;19.40;88.80
18337;DHT22;9294;51.106;7.028;2023-12-20T02:03:39;19.30;88.70
18337;DHT22;9294;51.106;7.028;2023-12-20T02:06:07;19.30;88.70
18337;DHT22;9294;51.106;7.028;2023-12-20T02:08:34;19.30;88.60
18337;DHT22;9294;51.106;7.028;2023-12-20T02:11:02;19.30;88.60
18337;DHT22;9294;51.106;7.028;2023-12-20T02:13:30;19.30;88.50
18337;DHT22;9294;51.106;7.028;2023-12-20T02:15:57;19.30;88.50
18337;DHT22;9294;51.106;7.028;2023-12-20T02:18:24;19.30;88.50
18337;DHT22;9294;51.106;7.028;2023-12-20T02:20:50;19.30;88.50
18337;DHT22;9294;51.106;7.028;2023-12-20T02:23:18;19.30;88.40
18337;DHT22;9294;51.106;7.028;2023-12-20T02:25:46;19.30;88.50
18337;DHT22;9294;51.106;7.028;2023-12-20T02:28:13;19.30;88.30
18337;DHT22;9294;51.106;7.028;2023-12-20T02:30:40;19.20;88.20
18337;DHT22;9294;51.106;7.028;2023-12-20T02:33:08;19.30;88.30
18337;DHT22;9294;51.106;7.028;2023-12-20T02:35:37;19.30;88.30
18337;DHT22;9294;51.106;7.028;2023-12-20T02:38:03;19.30;88.20
18337;DHT22;9294;51.106;7.028;2023-12-20T02:40:31;19.20;88.20
18337;DHT22;9294;51.106;7.028;2023-12-20T02:42:58;19.20;88.10
18337;DHT22;9294;51.106;7.028;2023-12-20T02:45:26;19.20;88.00
18337;DHT22;9294;51.106;7.028;2023-12-20T02:47:53;19.30;88.10
18337;DHT22;9294;51.106;7.028;2023-12-20T02:50:19;19.20;88.00
18337;DHT22;9294;51.106;7.028;2023-12-20T02:52:46;19.20;88.00
18337;DHT22;9294;51.106;7.028;2023-12-20T02:55:13;19.20;88.00
18337;DHT22;9294;51.106;7.028;2023-12-20T02:57:41;19.20;88.00
18337;DHT22;9294;51.106;7.028;2023-12-20T03:00:08;19.20;88.00
18337;DHT22;9294;51.106;7.028;2023-12-20T03:02:36;19.20;88.00
18337;DHT22;9294;51.106;7.028;2023-12-20T03:05:03;19.20;88.00
18337;DHT22;9294;51.106;7.028;2023-12-20T03:07:29;19.20;87.90
18337;DHT22;9294;51.106;7.028;2023-12-20T03:09:55;19.20;87.90
18337;DHT22;9294;51.106;7.028;2023-12-20T03:12:22;19.20;87.90
18337;DHT22;9294;51.106;7.028;2023-12-20T03:14:50;19.20;87.90
18337;DHT22;9294;51.106;7.028;2023-12-20T03:17:17;19.20;88.00
18337;DHT22;9294;51.106;7.028;2023-12-20T03:19:44;19.20;88.00
18337;DHT22;9294;51.106;7.028;2023-12-20T03:22:10;19.20;88.00
18337;DHT22;9294;51.106;7.028;2023-12-20T03:24:37;19.20;87.90
18337;DHT22;9294;51.106;7.028;2023-12-20T03:27:04;19.10;87.90
18337;DHT22;9294;51.106;7.028;2023-12-20T03:29:31;19.10;87.90
18337;DHT22;9294;51.106;7.028;2023-12-20T03:31:59;19.10;87.80
18337;DHT22;9294;51.106;7.028;2023-12-20T03:34:26;19.10;87.80
18337;DHT22;9294;51.106;7.028;2023-12-20T03:36:54;19.10;87.90
18337;DHT22;9294;51.106;7.028;2023-12-20T03:39:21;19.10;87.90
18337;DHT22;9294;51.106;7.028;2023-12-20T03:41:47;19.10;87.90
18337;DHT22;9294;51.106;7.028;2023-12-20T03:44:14;19.10;87.90
18337;DHT22;9294;51.106;7.028;2023-12-20T03:46:41;19.10;88.00
18337;DHT22;9294;51.106;7.028;2023-12-20T03:49:09;19.10;88.00
18337;DHT22;9294;51.106;7.028;2023-12-20T03:51:35;19.10;88.00
18337;DHT22;9294;51.106;7.028;2023-12-20T03:54:02;19.10;88.00
18337;DHT22;9294;51.106;7.028;2023-12-20T03:56:29;19.10;88.00
18337;DHT22;9294;51.106;7.028;2023-12-20T03:58:56;19.00;87.90
18337;DHT22;9294;51.106;7.028;2023-12-20T04:01:22;19.10;88.00
18337;DHT22;9294;51.106;7.028;2023-12-20T04:03:49;19.10;88.00
18337;DHT22;9294;51.106;7.028;2023-12-20T04:06:18;19.00;87.90
18337;DHT22;9294;51.106;7.028;2023-12-20T04:08:44;19.00;87.90
18337;DHT22;9294;51.106;7.028;2023-12-20T04:11:11;19.00;87.90
18337;DHT22;9294;51.106;7.028;2023-12-20T04:13:38;19.00;87.90
18337;DHT22;9294;51.106;7.028;2023-12-20T04:16:05;19.00;88.00
18337;DHT22;9294;51.106;7.028;2023-12-20T04:18:31;19.00;88.00
18337;DHT22;9294;51.106;7.028;2023-12-20T04:20:58;19.00;87.90
18337;DHT22;9294;51.106;7.028;2023-12-20T04:23:26;19.00;87.90
18337;DHT22;9294;51.106;7.028;2023-12-20T04:25:54;19.00;87.90
18337;DHT22;9294;51.106;7.028;2023-12-20T04:28:20;19.00;87.90
18337;DHT22;9294;51.106;7.028;2023-12-20T04:30:47;19.00;88.00
18337;DHT22;9294;51.106;7.028;2023-12-20T04:33:14;19.00;88.00
18337;DHT22;9294;51.106;7.028;2023-12-20T04:35:40;19.00;88.00
18337;DHT22;9294;51.106;7.028;2023-12-20T04:38:08;19.00;88.00
18337;DHT22;9294;51.106;7.028;2023-12-20T04:40:36;18.90;88.20
18337;DHT22;9294;51.106;7.028;2023-12-20T04:43:03;18.90;88.50
18337;DHT22;9294;51.106;7.028;2023-12-20T04:45:30;18.90;89.10
18337;DHT22;9294;51.106;7.028;2023-12-20T04:47:56;18.90;89.30
18337;DHT22;9294;51.106;7.028;2023-12-20T04:50:23;18.90;90.00
18337;DHT22;9294;51.106;7.028;2023-12-20T04:52:50;18.90;89.40
18337;DHT22;9294;51.106;7.028;2023-12-20T04:55:17;19.00;89.40
18337;DHT22;9294;51.106;7.028;2023-12-20T04:57:45;19.00;89.20
18337;DHT22;9294;51.106;7.028;2023-12-20T05:00:12;19.10;89.10
18337;DHT22;9294;51.106;7.028;2023-12-20T05:02:39;19.20;89.00
18337;DHT22;9294;51.106;7.028;2023-12-20T05:05:07;19.30;88.70
18337;DHT22;9294;51.106;7.028;2023-12-20T05:07:33;19.40;88.60
18337;DHT22;9294;51.106;7.028;2023-12-20T05:10:00;19.40;88.30
18337;DHT22;9294;51.106;7.028;2023-12-20T05:12:27;19.40;88.90
18337;DHT22;9294;51.106;7.028;2023-12-20T05:14:55;19.50;88.20
18337;DHT22;9294;51.106;7.028;2023-12-20T05:17:21;19.50;88.00
18337;DHT22;9294;51.106;7.028;2023-12-20T05:19:48;19.60;87.90
18337;DHT22;9294;51.106;7.028;2023-12-20T05:22:15;19.60;87.60
18337;DHT22;9294;51.106;7.028;2023-12-20T05:24:41;19.70;87.60
18337;DHT22;9294;51.106;7.028;2023-12-20T05:27:08;19.80;88.00
18337;DHT22;9294;51.106;7.028;2023-12-20T05:29:35;19.80;87.10
18337;DHT22;9294;51.106;7.028;2023-12-20T05:32:03;19.90;86.80
18337;DHT22;9294;51.106;7.028;2023-12-20T05:34:30;19.90;86.70
18337;DHT22;9294;51.106;7.028;2023-12-20T05:36:57;19.90;86.50
18337;DHT22;9294;51.106;7.028;2023-12-20T05:39:24;20.00;86.50
18337;DHT22;9294;51.106;7.028;2023-12-20T05:41:51;20.00;86.30
18337;DHT22;9294;51.106;7.028;2023-12-20T05:44:17;20.00;86.20
18337;DHT22;9294;51.106;7.028;2023-12-20T05:46:44;20.00;86.20
18337;DHT22;9294;51.106;7.028;2023-12-20T05:49:12;20.00;86.20
18337;DHT22;9294;51.106;7.028;2023-12-20T05:51:39;20.00;86.10
18337;DHT22;9294;51.106;7.028;2023-12-20T05:54:06;20.00;86.00
18337;DHT22;9294;51.106;7.028;2023-12-20T05:56:32;20.10;86.00
18337;DHT22;9294;51.106;7.028;2023-12-20T05:58:59;20.00;85.80
18337;DHT22;9294;51.106;7.028;2023-12-20T06:01:26;20.10;85.90
18337;DHT22;9294;51.106;7.028;2023-12-20T06:03:52;20.10;85.90
18337;DHT22;9294;51.106;7.028;2023-12-20T06:06:20;20.10;85.90
18337;DHT22;9294;51.106;7.028;2023-12-20T06:08:47;20.10;85.80
18337;DHT22;9294;51.106;7.028;2023-12-20T06:11:13;20.10;85.70
18337;DHT22;9294;51.106;7.028;2023-12-20T06:13:40;20.10;85.70
18337;DHT22;9294;51.106;7.028;2023-12-20T06:16:07;20.10;85.60
18337;DHT22;9294;51.106;7.028;2023-12-20T06:18:34;20.10;85.60
18337;DHT22;9294;51.106;7.028;2023-12-20T06:21:02;20.10;85.60
18337;DHT22;9294;51.106;7.028;2023-12-20T06:23:30;20.10;85.60
18337;DHT22;9294;51.106;7.028;2023-12-20T06:25:57;20.10;85.60
18337;DHT22;9294;51.106;7.028;2023-12-20T06:28:23;20.10;85.70
18337;DHT22;9294;51.106;7.028;2023-12-20T06:30:50;20.10;85.70
18337;DHT22;9294;51.106;7.028;2023-12-20T06:33:18;20.10;85.70
18337;DHT22;9294;51.106;7.028;2023-12-20T06:35:46;20.10;85.70
18337;DHT22;9294;51.106;7.028;2023-12-20T06:38:13;20.10;85.70
18337;DHT22;9294;51.106;7.028;2023-12-20T06:40:41;20.00;85.70
18337;DHT22;9294;51.106;7.028;2023-12-20T06:43:08;20.00;85.80
18337;DHT22;9294;51.106;7.028;2023-12-20T06:45:35;20.00;87.10
18337;DHT22;9294;51.106;7.028;2023-12-20T06:48:01;20.00;86.70
18337;DHT22;9294;51.106;7.028;2023-12-20T06:50:28;20.00;86.70
18337;DHT22;9294;51.106;7.028;2023-12-20T06:52:55;20.00;87.80
18337;DHT22;9294;51.106;7.028;2023-12-20T06:55:21;20.00;88.00
18337;DHT22;9294;51.106;7.028;2023-12-20T06:57:49;20.00;87.70
18337;DHT22;9294;51.106;7.028;2023-12-20T07:00:17;20.00;87.60
18337;DHT22;9294;51.106;7.028;2023-12-20T07:02:45;20.00;87.90
18337;DHT22;9294;51.106;7.028;2023-12-20T07:05:15;20.00;87.80
18337;DHT22;9294;51.106;7.028;2023-12-20T07:07:42;20.00;88.30
18337;DHT22;9294;51.106;7.028;2023-12-20T07:10:09;19.90;88.80
18337;DHT22;9294;51.106;7.028;2023-12-20T07:12:36;20.00;89.10
18337;DHT22;9294;51.106;7.028;2023-12-20T07:15:04;20.00;89.20
18337;DHT22;9294;51.106;7.028;2023-12-20T07:17:32;19.90;89.20
18337;DHT22;9294;51.106;7.028;2023-12-20T07:19:59;19.90;89.20
18337;DHT22;9294;51.106;7.028;2023-12-20T07:22:29;19.90;89.10
18337;DHT22;9294;51.106;7.028;2023-12-20T07:24:57;19.90;89.20
18337;DHT22;9294;51.106;7.028;2023-12-20T07:27:23;19.90;89.20
18337;DHT22;9294;51.106;7.028;2023-12-20T07:29:50;19.90;89.10
18337;DHT22;9294;51.106;7.028;2023-12-20T07:32:18;19.90;89.10
18337;DHT22;9294;51.106;7.028;2023-12-20T07:34:45;19.90;89.50
18337;DHT22;9294;51.106;7.028;2023-12-20T07:37:11;19.90;89.70
18337;DHT22;9294;51.106;7.028;2023-12-20T07:39:39;19.90;89.10
18337;DHT22;9294;51.106;7.028;2023-12-20T07:42:06;20.00;89.20
18337;DHT22;9294;51.106;7.028;2023-12-20T07:44:33;20.00;88.90
18337;DHT22;9294;51.106;7.028;2023-12-20T07:47:01;20.10;88.20
18337;DHT22;9294;51.106;7.028;2023-12-20T07:49:29;20.20;87.80
18337;DHT22;9294;51.106;7.028;2023-12-20T07:51:56;20.20;87.50
18337;DHT22;9294;51.106;7.028;2023-12-20T07:54:23;20.20;87.30
18337;DHT22;9294;51.106;7.028;2023-12-20T07:56:49;20.30;87.30
18337;DHT22;9294;51.106;7.028;2023-12-20T07:59:16;20.40;87.00
18337;DHT22;9294;51.106;7.028;2023-12-20T08:01:43;20.40;86.60
18337;DHT22;9294;51.106;7.028;2023-12-20T08:04:09;20.40;86.10
18337;DHT22;9294;51.106;7.028;2023-12-20T08:06:37;20.40;84.20
18337;DHT22;9294;51.106;7.028;2023-12-20T08:09:04;20.40;85.00
18337;DHT22;9294;51.106;7.028;2023-12-20T08:11:31;20.30;85.30
18337;DHT22;9294;51.106;7.028;2023-12-20T08:13:57;20.40;85.70
18337;DHT22;9294;51.106;7.028;2023-12-20T08:16:24;20.30;85.70
18337;DHT22;9294;51.106;7.028;2023-12-20T08:18:51;20.40;86.10
18337;DHT22;9294;51.106;7.028;2023-12-20T08:21:17;20.30;86.20
18337;DHT22;9294;51.106;7.028;2023-12-20T08:23:46;20.40;86.50
18337;DHT22;9294;51.106;7.028;2023-12-20T08:26:18;20.40;86.60
18337;DHT22;9294;51.106;7.028;2023-12-20T08:28:46;20.40;86.50
18337;DHT22;9294;51.106;7.028;2023-12-20T08:31:14;20.40;86.50
18337;DHT22;9294;51.106;7.028;2023-12-20T08:33:43;20.40;86.60
18337;DHT22;9294;51.106;7.028;2023-12-20T08:36:09;20.50;86.80
18337;DHT22;9294;51.106;7.028;2023-12-20T08:38:36;20.50;87.00
18337;DHT22;9294;51.106;7.028;2023-12-20T08:41:04;20.50;86.80
18337;DHT22;9294;51.106;7.028;2023-12-20T08:43:31;20.50;86.90
18337;DHT22;9294;51.106;7.028;2023-12-20T08:45:58;20.50;86.60
18337;DHT22;9294;51.106;7.028;2023-12-20T08:48:24;20.50;86.50
18337;DHT22;9294;51.106;7.028;2023-12-20T08:50:51;20.50;86.80
18337;DHT22;9294;51.106;7.028;2023-12-20T08:53:18;20.50;86.30
18337;DHT22;9294;51.106;7.028;2023-12-20T08:55:45;20.50;86.60
18337;DHT22;9294;51.106;7.028;2023-12-20T08:58:13;20.40;86.50
18337;DHT22;9294;51.106;7.028;2023-12-20T09:00:40;20.40;86.60
18337;DHT22;9294;51.106;7.028;2023-12-20T09:03:06;20.40;86.80
18337;DHT22;9294;51.106;7.028;2023-12-20T09:05:33;20.40;86.00
18337;DHT22;9294;51.106;7.028;2023-12-20T09:08:00;20.40;84.60
18337;DHT22;9294;51.106;7.028;2023-12-20T09:10:26;20.40;85.20
18337;DHT22;9294;51.106;7.028;2023-12-20T09:12:53;20.30;85.50
18337;DHT22;9294;51.106;7.028;2023-12-20T09:15:23;20.30;85.80
18337;DHT22;9294;51.106;7.028;2023-12-20T09:17:49;20.30;85.70
18337;DHT22;9294;51.106;7.028;2023-12-20T09:20:53;20.20;85.70
18337;DHT22;9294;51.106;7.028;2023-12-20T09:23:20;20.20;85.70
18337;DHT22;9294;51.106;7.028;2023-12-20T09:25:46;20.10;86.00
18337;DHT22;9294;51.106;7.028;2023-12-20T09:28:13;20.10;86.40
18337;DHT22;9294;51.106;7.028;2023-12-20T09:30:41;20.00;86.90
18337;DHT22;9294;51.106;7.028;2023-12-20T09:33:10;20.00;87.00
18337;DHT22;9294;51.106;7.028;2023-12-20T09:35:36;20.00;86.90
18337;DHT22;9294;51.106;7.028;2023-12-20T09:38:04;20.00;87.30
18337;DHT22;9294;51.106;7.028;2023-12-20T09:40:32;20.00;87.30
18337;DHT22;9294;51.106;7.028;2023-12-20T09:43:03;20.10;90.10
18337;DHT22;9294;51.106;7.028;2023-12-20T09:45:31;20.10;90.00
18337;DHT22;9294;51.106;7.028;2023-12-20T09:47:59;20.10;89.40
18337;DHT22;9294;51.106;7.028;2023-12-20T09:50:26;20.10;89.20
18337;DHT22;9294;51.106;7.028;2023-12-20T09:52:58;20.10;89.10
18337;DHT22;9294;51.106;7.028;2023-12-20T09:55:25;20.20;88.90
18337;DHT22;9294;51.106;7.028;2023-12-20T09:57:52;20.20;88.80
18337;DHT22;9294;51.106;7.028;2023-12-20T10:00:19;20.20;88.60
18337;DHT22;9294;51.106;7.028;2023-12-20T10:02:50;20.20;88.60
18337;DHT22;9294;51.106;7.028;2023-12-20T10:05:26;20.20;88.30
18337;DHT22;9294;51.106;7.028;2023-12-20T10:07:53;20.20;88.20
18337;DHT22;9294;51.106;7.028;2023-12-20T10:10:20;20.30;88.20
18337;DHT22;9294;51.106;7.028;2023-12-20T10:13:01;20.20;87.80
18337;DHT22;9294;51.106;7.028;2023-12-20T10:15:28;20.20;87.50
18337;DHT22;9294;51.106;7.028;2023-12-20T10:17:54;20.30;87.60
18337;DHT22;9294;51.106;7.028;2023-12-20T10:20:22;20.30;87.60
18337;DHT22;9294;51.106;7.028;2023-12-20T10:22:49;20.30;87.60
18337;DHT22;9294;51.106;7.028;2023-12-20T10:25:19;20.30;87.60
18337;DHT22;9294;51.106;7.028;2023-12-20T10:27:45;20.20;87.50
18337;DHT22;9294;51.106;7.028;2023-12-20T10:30:13;20.20;87.50
18337;DHT22;9294;51.106;7.028;2023-12-20T10:32:40;20.20;87.60
18337;DHT22;9294;51.106;7.028;2023-12-20T10:35:08;20.20;87.50
18337;DHT22;9294;51.106;7.028;2023-12-20T10:37:37;20.20;87.60
18337;DHT22;9294;51.106;7.028;2023-12-20T10:40:06;20.20;88.20
18337;DHT22;9294;51.106;7.028;2023-12-20T10:42:33;20.20;88.70
18337;DHT22;9294;51.106;7.028;2023-12-20T10:45:01;20.20;88.30
18337;DHT22;9294;51.106;7.028;2023-12-20T10:47:30;20.20;88.20
18337;DHT22;9294;51.106;7.028;2023-12-20T10:49:59;20.20;88.20
18337;DHT22;9294;51.106;7.028;2023-12-20T10:52:28;20.20;88.10
18337;DHT22;9294;51.106;7.028;2023-12-20T10:54:56;20.30;88.20
18337;DHT22;9294;51.106;7.028;2023-12-20T10:57:26;20.30;88.10
18337;DHT22;9294;51.106;7.028;2023-12-20T10:59:54;20.20;88.00
18337;DHT22;9294;51.106;7.028;2023-12-20T11:02:22;20.30;87.90
18337;DHT22;9294;51.106;7.028;2023-12-20T11:04:53;20.20;87.60
18337;DHT22;9294;51.106;7.028;2023-12-20T11:07:24;20.30;87.80
18337;DHT22;9294;51.106;7.028;2023-12-20T11:09:58;20.30;87.80
18337;DHT22;9294;51.106;7.028;2023-12-20T11:12:35;20.20;88.50
18337;DHT22;9294;51.106;7.028;2023-12-20T11:15:04;20.30;88.30
18337;DHT22;9294;51.106;7.028;2023-12-20T11:17:32;20.20;88.50
18337;DHT22;9294;51.106;7.028;2023-12-20T11:20:07;20.30;88.50
18337;DHT22;9294;51.106;7.028;2023-12-20T11:22:36;20.30;88.80
18337;DHT22;9294;51.106;7.028;2023-12-20T11:25:08;20.30;88.80
18337;DHT22;9294;51.106;7.028;2023-12-20T11:27:36;20.30;89.00
18337;DHT22;9294;51.106;7.028;2023-12-20T11:30:04;20.30;89.20
18337;DHT22;9294;51.106;7.028;2023-12-20T11:32:34;20.30;89.40
18337;DHT22;9294;51.106;7.028;2023-12-20T11:35:16;20.30;90.40
18337;DHT22;9294;51.106;7.028;2023-12-20T11:37:44;20.40;90.40
18337;DHT22;9294;51.106;7.028;2023-12-20T11:40:15;20.30;90.40
18337;DHT22;9294;51.106;7.028;2023-12-20T11:42:43;20.40;90.40
18337;DHT22;9294;51.106;7.028;2023-12-20T11:45:11;20.30;90.30
18337;DHT22;9294;51.106;7.028;2023-12-20T11:47:40;20.30;90.20
18337;DHT22;9294;51.106;7.028;2023-12-20T11:50:07;20.30;90.20
18337;DHT22;9294;51.106;7.028;2023-12-20T11:52:35;20.30;90.10
18337;DHT22;9294;51.106;7.028;2023-12-20T11:55:01;20.30;90.20
18337;DHT22;9294;51.106;7.028;2023-12-20T11:57:30;20.30;90.20
18337;DHT22;9294;51.106;7.028;2023-12-20T11:59:57;20.30;90.30
18337;DHT22;9294;51.106;7.028;2023-12-20T12:02:24;20.30;90.20
18337;DHT22;9294;51.106;7.028;2023-12-20T12:04:51;20.30;90.30
18337;DHT22;9294;51.106;7.028;2023-12-20T12:07:17;20.20;90.30
18337;DHT22;9294;51.106;7.028;2023-12-20T12:09:44;20.30;90.40
18337;DHT22;9294;51.106;7.028;2023-12-20T12:12:12;20.20;90.40
18337;DHT22;9294;51.106;7.028;2023-12-20T12:14:40;20.30;90.40
18337;DHT22;9294;51.106;7.028;2023-12-20T12:17:10;20.30;90.40
18337;DHT22;9294;51.106;7.028;2023-12-20T12:19:37;20.40;90.30
18337;DHT22;9294;51.106;7.028;2023-12-20T12:22:08;20.40;90.20
18337;DHT22;9294;51.106;7.028;2023-12-20T12:24:38;20.50;90.10
18337;DHT22;9294;51.106;7.028;2023-12-20T12:27:06;20.40;90.00
18337;DHT22;9294;51.106;7.028;2023-12-20T12:29:33;20.50;90.00
18337;DHT22;9294;51.106;7.028;2023-12-20T12:32:02;20.50;89.70
18337;DHT22;9294;51.106;7.028;2023-12-20T12:34:30;20.50;89.60
18337;DHT22;9294;51.106;7.028;2023-12-20T12:36:58;20.50;89.40
18337;DHT22;9294;51.106;7.028;2023-12-20T12:39:24;20.50;89.30
18337;DHT22;9294;51.106;7.028;2023-12-20T12:41:51;20.50;89.20
18337;DHT22;9294;51.106;7.028;2023-12-20T12:44:18;20.50;89.90
18337;DHT22;9294;51.106;7.028;2023-12-20T12:46:46;20.40;89.90
18337;DHT22;9294;51.106;7.028;2023-12-20T12:49:14;20.40;90.00
18337;DHT22;9294;51.106;7.028;2023-12-20T12:51:40;20.40;90.00
18337;DHT22;9294;51.106;7.028;2023-12-20T12:54:07;20.40;89.90
18337;DHT22;9294;51.106;7.028;2023-12-20T12:56:35;20.40;89.90
18337;DHT22;9294;51.106;7.028;2023-12-20T12:59:02;20.40;89.70
18337;DHT22;9294;51.106;7.028;2023-12-20T13:01:29;20.40;89.70
18337;DHT22;9294;51.106;7.028;2023-12-20T13:03:55;20.40;89.80
18337;DHT22;9294;51.106;7.028;2023-12-20T13:06:23;20.40;90.00
18337;DHT22;9294;51.106;7.028;2023-12-20T13:08:50;20.30;90.10
18337;DHT22;9294;51.106;7.028;2023-12-20T13:11:17;20.40;90.00
18337;DHT22;9294;51.106;7.028;2023-12-20T13:13:44;20.30;90.00
18337;DHT22;9294;51.106;7.028;2023-12-20T13:16:11;20.30;89.80
18337;DHT22;9294;51.106;7.028;2023-12-20T13:18:38;20.40;89.90
18337;DHT22;9294;51.106;7.028;2023-12-20T13:21:07;20.40;89.60
18337;DHT22;9294;51.106;7.028;2023-12-20T13:23:35;20.40;89.50
18337;DHT22;9294;51.106;7.028;2023-12-20T13:26:02;20.50;89.40
18337;DHT22;9294;51.106;7.028;2023-12-20T13:28:29;20.40;89.30
18337;DHT22;9294;51.106;7.028;2023-12-20T13:30:56;20.50;89.40
18337;DHT22;9294;51.106;7.028;2023-12-20T13:33:23;20.40;89.60
18337;DHT22;9294;51.106;7.028;2023-12-20T13:35:49;20.40;89.80
18337;DHT22;9294;51.106;7.028;2023-12-20T13:38:15;20.40;89.60
18337;DHT22;9294;51.106;7.028;2023-12-20T13:40:43;20.40;89.60
18337;DHT22;9294;51.106;7.028;2023-12-20T13:43:10;20.30;89.40
18337;DHT22;9294;51.106;7.028;2023-12-20T13:45:38;20.30;89.40
18337;DHT22;9294;51.106;7.028;2023-12-20T13:48:05;20.30;89.40
18337;DHT22;9294;51.106;7.028;2023-12-20T13:50:32;20.30;90.00
18337;DHT22;9294;51.106;7.028;2023-12-20T13:52:58;20.30;90.10
18337;DHT22;9294;51.106;7.028;2023-12-20T13:55:26;20.30;90.10
18337;DHT22;9294;51.106;7.028;2023-12-20T13:57:54;20.30;89.80
18337;DHT22;9294;51.106;7.028;2023-12-20T14:00:21;20.30;89.80
18337;DHT22;9294;51.106;7.028;2023-12-20T14:02:47;20.30;89.80
18337;DHT22;9294;51.106;7.028;2023-12-20T14:05:15;20.30;89.80
18337;DHT22;9294;51.106;7.028;2023-12-20T14:07:43;20.40;89.80
18337;DHT22;9294;51.106;7.028;2023-12-20T14:10:11;20.30;90.00
18337;DHT22;9294;51.106;7.028;2023-12-20T14:12:38;20.30;90.20
18337;DHT22;9294;51.106;7.028;2023-12-20T14:15:07;20.30;90.20
18337;DHT22;9294;51.106;7.028;2023-12-20T14:17:36;20.30;90.00
18337;DHT22;9294;51.106;7.028;2023-12-20T14:20:04;20.30;89.90
18337;DHT22;9294;51.106;7.028;2023-12-20T14:22:31;20.30;89.90
18337;DHT22;9294;51.106;7.028;2023-12-20T14:24:58;20.30;89.80
18337;DHT22;9294;51.106;7.028;2023-12-20T14:27:25;20.30;89.70
18337;DHT22;9294;51.106;7.028;2023-12-20T14:29:53;20.30;89.60
18337;DHT22;9294;51.106;7.028;2023-12-20T14:32:21;20.30;89.90
18337;DHT22;9294;51.106;7.028;2023-12-20T14:34:47;20.40;89.70
18337;DHT22;9294;51.106;7.028;2023-12-20T14:37:14;20.40;89.50
18337;DHT22;9294;51.106;7.028;2023-12-20T14:39:42;20.30;89.30
18337;DHT22;9294;51.106;7.028;2023-12-20T14:42:09;20.30;89.40
18337;DHT22;9294;51.106;7.028;2023-12-20T14:44:38;20.30;89.50
18337;DHT22;9294;51.106;7.028;2023-12-20T14:47:05;20.30;89.50
18337;DHT22;9294;51.106;7.028;2023-12-20T14:49:33;20.30;89.50
18337;DHT22;9294;51.106;7.028;2023-12-20T14:52:00;20.30;89.50
18337;DHT22;9294;51.106;7.028;2023-12-20T14:54:26;20.30;89.80
18337;DHT22;9294;51.106;7.028;2023-12-20T14:56:53;20.30;89.50
18337;DHT22;9294;51.106;7.028;2023-12-20T14:59:21;20.30;89.40
18337;DHT22;9294;51.106;7.028;2023-12-20T15:01:48;20.30;89.40
18337;DHT22;9294;51.106;7.028;2023-12-20T15:04:15;20.30;89.40
18337;DHT22;9294;51.106;7.028;2023-12-20T15:06:43;20.20;89.50
18337;DHT22;9294;51.106;7.028;2023-12-20T15:09:10;20.20;89.60
18337;DHT22;9294;51.106;7.028;2023-12-20T15:11:37;20.20;89.70
18337;DHT22;9294;51.106;7.028;2023-12-20T15:14:03;20.20;89.60
18337;DHT22;9294;51.106;7.028;2023-12-20T15:16:30;20.10;89.40
18337;DHT22;9294;51.106;7.028;2023-12-20T15:18:57;20.00;89.40
18337;DHT22;9294;51.106;7.028;2023-12-20T15:21:24;20.10;89.60
18337;DHT22;9294;51.106;7.028;2023-12-20T15:23:58;20.10;89.90
18337;DHT22;9294;51.106;7.028;2023-12-20T15:26:38;20.10;89.20
18337;DHT22;9294;51.106;7.028;2023-12-20T15:29:05;20.20;89.50
18337;DHT22;9294;51.106;7.028;2023-12-20T15:31:32;20.20;89.20
18337;DHT22;9294;51.106;7.028;2023-12-20T15:33:59;20.20;89.00
18337;DHT22;9294;51.106;7.028;2023-12-20T15:36:25;20.30;89.00
18337;DHT22;9294;51.106;7.028;2023-12-20T15:38:52;20.30;88.70
18337;DHT22;9294;51.106;7.028;2023-12-20T15:41:21;20.30;88.70
18337;DHT22;9294;51.106;7.028;2023-12-20T15:43:49;20.30;88.60
18337;DHT22;9294;51.106;7.028;2023-12-20T15:46:16;20.40;88.40